sensor_id;sensor_type;location;lat;lon;timestamp;P1;durP1;ratioP1;P2;durP2;ratioP2
17496;SDS011;62150;43.582;1.456;2022-12-05T07:23:01;13.23;;;6.63;;
17496;SDS011;62150;43.582;1.456;2022-12-05T07:25:29;14.83;;;7.47;;
17496;SDS011;62150;43.582;1.456;2022-12-05T07:27:57;14.27;;;7.03;;
17496;SDS011;62150;43.582;1.456;2022-12-05T07:30:25;14.07;;;7.00;;
17496;SDS011;62150;43.582;1.456;2022-12-05T07:32:52;13.83;;;6.80;;
17496;SDS011;62150;43.582;1.456;2022-12-05T07:35:20;14.73;;;7.00;;
17496;SDS011;62150;43.582;1.456;2022-12-05T07:37:47;14.10;;;7.10;;
17496;SDS011;62150;43.582;1.456;2022-12-05T07:40:16;15.30;;;7.27;;
17496;SDS011;62150;43.582;1.456;2022-12-05T07:42:46;15.10;;;7.13;;
17496;SDS011;62150;43.582;1.456;2022-12-05T07:45:14;13.33;;;6.93;;
17496;SDS011;62150;43.582;1.456;2022-12-05T07:47:42;13.60;;;6.53;;
17496;SDS011;62150;43.582;1.456;2022-12-05T07:50:09;14.67;;;7.57;;
17496;SDS011;62150;43.582;1.456;2022-12-05T07:52:37;13.97;;;7.10;;
17496;SDS011;62150;43.582;1.456;2022-12-05T07:55:05;14.67;;;7.10;;
17496;SDS011;62150;43.582;1.456;2022-12-05T07:57:35;14.13;;;7.07;;
17496;SDS011;62150;43.582;1.456;2022-12-05T08:00:03;13.77;;;6.73;;
17496;SDS011;62150;43.582;1.456;2022-12-05T08:02:31;16.27;;;7.40;;
17496;SDS011;62150;43.582;1.456;2022-12-05T08:04:58;15.67;;;7.60;;
17496;SDS011;62150;43.582;1.456;2022-12-05T08:07:26;15.73;;;7.57;;
17496;SDS011;62150;43.582;1.456;2022-12-05T08:09:54;16.23;;;7.20;;
17496;SDS011;62150;43.582;1.456;2022-12-05T08:12:21;16.60;;;7.83;;
17496;SDS011;62150;43.582;1.456;2022-12-05T08:14:50;13.87;;;7.43;;
17496;SDS011;62150;43.582;1.456;2022-12-05T08:17:17;14.70;;;7.80;;
17496;SDS011;62150;43.582;1.456;2022-12-05T08:19:45;15.20;;;7.67;;
17496;SDS011;62150;43.582;1.456;2022-12-05T08:22:12;15.50;;;7.87;;
17496;SDS011;62150;43.582;1.456;2022-12-05T08:24:40;13.60;;;7.17;;
17496;SDS011;62150;43.582;1.456;2022-12-05T08:27:08;14.30;;;7.20;;
17496;SDS011;62150;43.582;1.456;2022-12-05T08:29:36;14.50;;;7.37;;
17496;SDS011;62150;43.582;1.456;2022-12-05T08:32:05;14.97;;;7.33;;
17496;SDS011;62150;43.582;1.456;2022-12-05T08:34:32;15.07;;;7.47;;
17496;SDS011;62150;43.582;1.456;2022-12-05T08:37:00;14.70;;;7.67;;
17496;SDS011;62150;43.582;1.456;2022-12-05T08:39:27;14.50;;;6.90;;
17496;SDS011;62150;43.582;1.456;2022-12-05T08:41:56;14.17;;;7.13;;
17496;SDS011;62150;43.582;1.456;2022-12-05T08:44:23;15.23;;;7.80;;
17496;SDS011;62150;43.582;1.456;2022-12-05T08:46:51;14.07;;;6.77;;
17496;SDS011;62150;43.582;1.456;2022-12-05T08:49:20;12.87;;;6.43;;
17496;SDS011;62150;43.582;1.456;2022-12-05T08:51:47;12.17;;;6.37;;
17496;SDS011;62150;43.582;1.456;2022-12-05T08:54:15;13.67;;;6.70;;
17496;SDS011;62150;43.582;1.456;2022-12-05T08:56:43;13.30;;;6.77;;
17496;SDS011;62150;43.582;1.456;2022-12-05T08:59:10;15.13;;;7.27;;
17496;SDS011;62150;43.582;1.456;2022-12-05T09:01:38;13.73;;;6.30;;
17496;SDS011;62150;43.582;1.456;2022-12-05T09:04:06;13.97;;;7.30;;
17496;SDS011;62150;43.582;1.456;2022-12-05T09:06:35;13.37;;;6.33;;
17496;SDS011;62150;43.582;1.456;2022-12-05T09:09:04;14.43;;;6.50;;
17496;SDS011;62150;43.582;1.456;2022-12-05T09:11:37;14.63;;;6.93;;
17496;SDS011;62150;43.582;1.456;2022-12-05T09:14:10;13.97;;;6.33;;
17496;SDS011;62150;43.582;1.456;2022-12-05T09:16:38;12.47;;;6.20;;
17496;SDS011;62150;43.582;1.456;2022-12-05T09:19:10;13.43;;;6.53;;
17496;SDS011;62150;43.582;1.456;2022-12-05T09:21:40;14.33;;;7.23;;
17496;SDS011;62150;43.582;1.456;2022-12-05T09:24:08;14.73;;;7.07;;
17496;SDS011;62150;43.582;1.456;2022-12-05T09:26:37;13.23;;;6.57;;
17496;SDS011;62150;43.582;1.456;2022-12-05T09:29:05;14.40;;;6.90;;
17496;SDS011;62150;43.582;1.456;2022-12-05T09:31:33;15.03;;;7.03;;
17496;SDS011;62150;43.582;1.456;2022-12-05T09:34:01;15.47;;;7.27;;
17496;SDS011;62150;43.582;1.456;2022-12-05T09:36:29;15.57;;;7.20;;
17496;SDS011;62150;43.582;1.456;2022-12-05T09:38:59;13.77;;;6.90;;
17496;SDS011;62150;43.582;1.456;2022-12-05T09:41:43;14.40;;;7.17;;
17496;SDS011;62150;43.582;1.456;2022-12-05T09:44:50;15.37;;;7.17;;
17496;SDS011;62150;43.582;1.456;2022-12-05T09:47:31;12.77;;;6.03;;
17496;SDS011;62150;43.582;1.456;2022-12-05T09:50:12;14.73;;;7.20;;
17496;SDS011;62150;43.582;1.456;2022-12-05T09:52:47;12.57;;;6.40;;
17496;SDS011;62150;43.582;1.456;2022-12-05T09:55:27;13.60;;;6.23;;
17496;SDS011;62150;43.582;1.456;2022-12-05T09:58:03;15.53;;;8.17;;
17496;SDS011;62150;43.582;1.456;2022-12-05T10:00:38;15.23;;;7.67;;
17496;SDS011;62150;43.582;1.456;2022-12-05T10:03:08;14.33;;;7.10;;
17496;SDS011;62150;43.582;1.456;2022-12-05T10:05:47;16.40;;;8.07;;
17496;SDS011;62150;43.582;1.456;2022-12-05T10:08:22;16.37;;;7.70;;
17496;SDS011;62150;43.582;1.456;2022-12-05T10:11:00;13.43;;;7.03;;
17496;SDS011;62150;43.582;1.456;2022-12-05T10:13:36;13.73;;;7.03;;
17496;SDS011;62150;43.582;1.456;2022-12-05T10:16:12;14.83;;;7.20;;
17496;SDS011;62150;43.582;1.456;2022-12-05T10:18:44;13.73;;;7.00;;
17496;SDS011;62150;43.582;1.456;2022-12-05T10:21:16;12.37;;;6.17;;
17496;SDS011;62150;43.582;1.456;2022-12-05T10:23:50;11.97;;;5.47;;
17496;SDS011;62150;43.582;1.456;2022-12-05T10:26:22;13.07;;;6.17;;
17496;SDS011;62150;43.582;1.456;2022-12-05T10:28:55;12.20;;;5.67;;
17496;SDS011;62150;43.582;1.456;2022-12-05T10:31:29;11.60;;;5.63;;
17496;SDS011;62150;43.582;1.456;2022-12-05T10:34:01;11.83;;;5.27;;
17496;SDS011;62150;43.582;1.456;2022-12-05T10:36:32;12.17;;;5.80;;
17496;SDS011;62150;43.582;1.456;2022-12-05T10:39:00;10.87;;;4.63;;
17496;SDS011;62150;43.582;1.456;2022-12-05T10:41:29;10.80;;;4.87;;
17496;SDS011;62150;43.582;1.456;2022-12-05T10:43:56;10.30;;;4.47;;
17496;SDS011;62150;43.582;1.456;2022-12-05T10:46:25;10.47;;;4.77;;
17496;SDS011;62150;43.582;1.456;2022-12-05T10:48:53;9.00;;;4.13;;
17496;SDS011;62150;43.582;1.456;2022-12-05T10:51:22;9.73;;;4.40;;
17496;SDS011;62150;43.582;1.456;2022-12-05T10:53:53;10.47;;;4.80;;
17496;SDS011;62150;43.582;1.456;2022-12-05T10:56:36;12.40;;;4.60;;
17496;SDS011;62150;43.582;1.456;2022-12-05T10:59:06;10.83;;;4.70;;
17496;SDS011;62150;43.582;1.456;2022-12-05T11:01:35;9.90;;;4.30;;
17496;SDS011;62150;43.582;1.456;2022-12-05T11:04:11;9.17;;;4.10;;
17496;SDS011;62150;43.582;1.456;2022-12-05T11:06:56;10.20;;;4.60;;
17496;SDS011;62150;43.582;1.456;2022-12-05T11:09:26;8.97;;;3.93;;
17496;SDS011;62150;43.582;1.456;2022-12-05T11:11:59;10.30;;;4.37;;
17496;SDS011;62150;43.582;1.456;2022-12-05T11:14:55;9.57;;;4.43;;
17496;SDS011;62150;43.582;1.456;2022-12-05T11:17:26;9.10;;;3.83;;
17496;SDS011;62150;43.582;1.456;2022-12-05T11:19:57;8.90;;;4.00;;
17496;SDS011;62150;43.582;1.456;2022-12-05T11:22:31;8.57;;;3.80;;
17496;SDS011;62150;43.582;1.456;2022-12-05T11:24:59;8.53;;;3.90;;
17496;SDS011;62150;43.582;1.456;2022-12-05T11:27:49;8.93;;;4.00;;
17496;SDS011;62150;43.582;1.456;2022-12-05T11:30:17;9.90;;;3.83;;
17496;SDS011;62150;43.582;1.456;2022-12-05T11:32:46;8.87;;;3.87;;
17496;SDS011;62150;43.582;1.456;2022-12-05T11:35:17;9.50;;;3.93;;
17496;SDS011;62150;43.582;1.456;2022-12-05T11:37:51;9.80;;;3.83;;
17496;SDS011;62150;43.582;1.456;2022-12-05T11:40:24;8.80;;;3.90;;
17496;SDS011;62150;43.582;1.456;2022-12-05T11:43:11;9.43;;;3.87;;
17496;SDS011;62150;43.582;1.456;2022-12-05T11:45:57;9.30;;;3.87;;
17496;SDS011;62150;43.582;1.456;2022-12-05T11:48:41;9.30;;;3.70;;
17496;SDS011;62150;43.582;1.456;2022-12-05T11:51:31;7.30;;;3.43;;
17496;SDS011;62150;43.582;1.456;2022-12-05T11:56:56;8.23;;;3.57;;
17496;SDS011;62150;43.582;1.456;2022-12-05T11:59:36;7.33;;;3.40;;
17496;SDS011;62150;43.582;1.456;2022-12-05T12:02:25;8.70;;;3.60;;
17496;SDS011;62150;43.582;1.456;2022-12-05T12:05:10;9.07;;;3.73;;
17496;SDS011;62150;43.582;1.456;2022-12-05T12:07:50;7.70;;;3.50;;
17496;SDS011;62150;43.582;1.456;2022-12-05T12:10:27;8.43;;;3.63;;
17496;SDS011;62150;43.582;1.456;2022-12-05T12:13:02;7.50;;;3.27;;
17496;SDS011;62150;43.582;1.456;2022-12-05T12:15:43;8.33;;;3.57;;
17496;SDS011;62150;43.582;1.456;2022-12-05T12:18:30;7.77;;;3.67;;
17496;SDS011;62150;43.582;1.456;2022-12-05T12:21:20;8.07;;;3.53;;
17496;SDS011;62150;43.582;1.456;2022-12-05T12:23:59;7.13;;;3.50;;
17496;SDS011;62150;43.582;1.456;2022-12-05T12:26:36;6.70;;;3.10;;
17496;SDS011;62150;43.582;1.456;2022-12-05T12:29:14;8.77;;;3.50;;
17496;SDS011;62150;43.582;1.456;2022-12-05T12:31:57;6.50;;;3.00;;
17496;SDS011;62150;43.582;1.456;2022-12-05T12:34:46;8.93;;;3.60;;
17496;SDS011;62150;43.582;1.456;2022-12-05T12:37:30;8.33;;;3.47;;
17496;SDS011;62150;43.582;1.456;2022-12-05T12:40:11;7.93;;;3.30;;
17496;SDS011;62150;43.582;1.456;2022-12-05T12:42:46;8.13;;;3.17;;
17496;SDS011;62150;43.582;1.456;2022-12-05T12:45:26;7.53;;;3.37;;
17496;SDS011;62150;43.582;1.456;2022-12-05T12:48:14;7.00;;;3.00;;
17496;SDS011;62150;43.582;1.456;2022-12-05T12:51:00;7.53;;;3.40;;
17496;SDS011;62150;43.582;1.456;2022-12-05T12:59:17;6.07;;;3.03;;
17496;SDS011;62150;43.582;1.456;2022-12-05T13:01:57;7.90;;;3.47;;
17496;SDS011;62150;43.582;1.456;2022-12-05T13:04:30;6.47;;;3.23;;
17496;SDS011;62150;43.582;1.456;2022-12-05T13:07:04;7.33;;;3.30;;
17496;SDS011;62150;43.582;1.456;2022-12-05T13:09:39;6.30;;;3.00;;
17496;SDS011;62150;43.582;1.456;2022-12-05T13:12:10;5.83;;;3.03;;
17496;SDS011;62150;43.582;1.456;2022-12-05T13:14:43;6.33;;;3.03;;
17496;SDS011;62150;43.582;1.456;2022-12-05T13:17:15;6.57;;;2.83;;
17496;SDS011;62150;43.582;1.456;2022-12-05T13:19:48;7.23;;;3.00;;
17496;SDS011;62150;43.582;1.456;2022-12-05T13:22:17;6.77;;;3.17;;
17496;SDS011;62150;43.582;1.456;2022-12-05T13:24:46;5.63;;;2.70;;
17496;SDS011;62150;43.582;1.456;2022-12-05T13:27:16;6.77;;;2.83;;
17496;SDS011;62150;43.582;1.456;2022-12-05T13:29:49;6.43;;;3.00;;
17496;SDS011;62150;43.582;1.456;2022-12-05T13:32:28;6.83;;;3.10;;
17496;SDS011;62150;43.582;1.456;2022-12-05T13:35:00;5.03;;;2.73;;
17496;SDS011;62150;43.582;1.456;2022-12-05T13:37:35;5.13;;;2.63;;
17496;SDS011;62150;43.582;1.456;2022-12-05T13:40:28;4.77;;;2.53;;
17496;SDS011;62150;43.582;1.456;2022-12-05T13:43:15;6.77;;;3.10;;
17496;SDS011;62150;43.582;1.456;2022-12-05T13:46:04;6.37;;;2.87;;
17496;SDS011;62150;43.582;1.456;2022-12-05T13:48:35;5.03;;;2.73;;
17496;SDS011;62150;43.582;1.456;2022-12-05T13:51:08;6.93;;;2.97;;
17496;SDS011;62150;43.582;1.456;2022-12-05T13:53:46;6.60;;;3.00;;
17496;SDS011;62150;43.582;1.456;2022-12-05T13:56:25;5.33;;;2.70;;
17496;SDS011;62150;43.582;1.456;2022-12-05T13:59:10;6.63;;;2.70;;
17496;SDS011;62150;43.582;1.456;2022-12-05T14:01:47;6.20;;;3.13;;
17496;SDS011;62150;43.582;1.456;2022-12-05T14:10:08;7.33;;;3.10;;
17496;SDS011;62150;43.582;1.456;2022-12-05T14:12:51;5.17;;;2.70;;
17496;SDS011;62150;43.582;1.456;2022-12-05T14:15:24;6.70;;;2.80;;
17496;SDS011;62150;43.582;1.456;2022-12-05T14:17:59;6.17;;;2.70;;
17496;SDS011;62150;43.582;1.456;2022-12-05T14:23:35;8.30;;;3.63;;
17496;SDS011;62150;43.582;1.456;2022-12-05T14:26:20;8.97;;;3.73;;
17496;SDS011;62150;43.582;1.456;2022-12-05T14:29:00;8.43;;;3.60;;
17496;SDS011;62150;43.582;1.456;2022-12-05T14:31:53;8.10;;;3.50;;
17496;SDS011;62150;43.582;1.456;2022-12-05T14:34:30;7.87;;;3.67;;
17496;SDS011;62150;43.582;1.456;2022-12-05T14:37:01;9.20;;;3.90;;
17496;SDS011;62150;43.582;1.456;2022-12-05T14:39:38;8.97;;;4.00;;
17496;SDS011;62150;43.582;1.456;2022-12-05T14:42:23;9.27;;;3.30;;
17496;SDS011;62150;43.582;1.456;2022-12-05T14:44:55;8.97;;;3.90;;
17496;SDS011;62150;43.582;1.456;2022-12-05T14:47:25;9.23;;;3.97;;
17496;SDS011;62150;43.582;1.456;2022-12-05T14:49:57;8.53;;;3.70;;
17496;SDS011;62150;43.582;1.456;2022-12-05T14:52:45;8.47;;;3.67;;
17496;SDS011;62150;43.582;1.456;2022-12-05T14:55:42;7.27;;;3.30;;
17496;SDS011;62150;43.582;1.456;2022-12-05T14:58:12;7.63;;;3.20;;
17496;SDS011;62150;43.582;1.456;2022-12-05T15:00:43;8.27;;;3.43;;
17496;SDS011;62150;43.582;1.456;2022-12-05T15:03:20;9.20;;;3.67;;
17496;SDS011;62150;43.582;1.456;2022-12-05T15:05:54;8.33;;;3.70;;
17496;SDS011;62150;43.582;1.456;2022-12-05T15:08:23;11.93;;;4.40;;
17496;SDS011;62150;43.582;1.456;2022-12-05T15:10:53;10.53;;;4.30;;
17496;SDS011;62150;43.582;1.456;2022-12-05T15:13:21;10.07;;;4.27;;
17496;SDS011;62150;43.582;1.456;2022-12-05T15:15:54;9.27;;;4.50;;
17496;SDS011;62150;43.582;1.456;2022-12-05T15:18:29;10.83;;;4.40;;
17496;SDS011;62150;43.582;1.456;2022-12-05T15:21:01;9.23;;;3.93;;
17496;SDS011;62150;43.582;1.456;2022-12-05T15:23:38;8.97;;;4.10;;
17496;SDS011;62150;43.582;1.456;2022-12-05T15:26:15;9.53;;;4.20;;
17496;SDS011;62150;43.582;1.456;2022-12-05T15:28:56;10.47;;;4.63;;
17496;SDS011;62150;43.582;1.456;2022-12-05T15:31:30;10.50;;;4.57;;
17496;SDS011;62150;43.582;1.456;2022-12-05T15:34:02;10.23;;;4.50;;
17496;SDS011;62150;43.582;1.456;2022-12-05T15:36:33;11.67;;;5.10;;
17496;SDS011;62150;43.582;1.456;2022-12-05T15:39:04;10.53;;;4.90;;
17496;SDS011;62150;43.582;1.456;2022-12-05T15:41:33;10.77;;;5.00;;
17496;SDS011;62150;43.582;1.456;2022-12-05T15:44:02;11.13;;;5.30;;
17496;SDS011;62150;43.582;1.456;2022-12-05T15:46:31;12.70;;;6.10;;
17496;SDS011;62150;43.582;1.456;2022-12-05T15:49:00;12.93;;;5.83;;
17496;SDS011;62150;43.582;1.456;2022-12-05T15:51:43;10.40;;;4.83;;
17496;SDS011;62150;43.582;1.456;2022-12-05T15:54:13;11.70;;;4.90;;
17496;SDS011;62150;43.582;1.456;2022-12-05T15:56:46;9.30;;;4.60;;
17496;SDS011;62150;43.582;1.456;2022-12-05T15:59:19;12.23;;;5.60;;
17496;SDS011;62150;43.582;1.456;2022-12-05T16:01:51;11.50;;;5.90;;
17496;SDS011;62150;43.582;1.456;2022-12-05T16:04:25;12.87;;;5.77;;
17496;SDS011;62150;43.582;1.456;2022-12-05T16:06:58;12.03;;;5.67;;
17496;SDS011;62150;43.582;1.456;2022-12-05T16:09:31;13.33;;;6.50;;
17496;SDS011;62150;43.582;1.456;2022-12-05T16:12:05;13.07;;;6.17;;
17496;SDS011;62150;43.582;1.456;2022-12-05T16:14:42;11.93;;;5.93;;
17496;SDS011;62150;43.582;1.456;2022-12-05T16:17:12;12.37;;;6.07;;
17496;SDS011;62150;43.582;1.456;2022-12-05T16:19:42;12.43;;;5.60;;
17496;SDS011;62150;43.582;1.456;2022-12-05T16:22:16;11.73;;;5.70;;
17496;SDS011;62150;43.582;1.456;2022-12-05T16:24:52;11.30;;;5.30;;
17496;SDS011;62150;43.582;1.456;2022-12-05T16:27:23;12.93;;;6.77;;
17496;SDS011;62150;43.582;1.456;2022-12-05T16:30:05;11.50;;;5.90;;
17496;SDS011;62150;43.582;1.456;2022-12-05T16:32:35;13.30;;;6.27;;
17496;SDS011;62150;43.582;1.456;2022-12-05T16:38:11;11.07;;;5.23;;
17496;SDS011;62150;43.582;1.456;2022-12-05T16:40:50;10.10;;;4.77;;
17496;SDS011;62150;43.582;1.456;2022-12-05T16:43:24;9.83;;;4.80;;
17496;SDS011;62150;43.582;1.456;2022-12-05T16:49:13;9.97;;;4.50;;
17496;SDS011;62150;43.582;1.456;2022-12-05T16:51:56;9.90;;;4.67;;
17496;SDS011;62150;43.582;1.456;2022-12-05T16:54:26;9.57;;;4.70;;
17496;SDS011;62150;43.582;1.456;2022-12-05T16:56:55;9.50;;;4.97;;
17496;SDS011;62150;43.582;1.456;2022-12-05T16:59:29;10.20;;;5.00;;
17496;SDS011;62150;43.582;1.456;2022-12-05T17:01:59;10.50;;;5.27;;
17496;SDS011;62150;43.582;1.456;2022-12-05T17:04:27;9.67;;;4.87;;
17496;SDS011;62150;43.582;1.456;2022-12-05T17:06:56;11.23;;;5.27;;
17496;SDS011;62150;43.582;1.456;2022-12-05T17:09:23;11.27;;;5.57;;
17496;SDS011;62150;43.582;1.456;2022-12-05T17:11:51;11.13;;;5.20;;
17496;SDS011;62150;43.582;1.456;2022-12-05T17:14:26;11.43;;;5.40;;
17496;SDS011;62150;43.582;1.456;2022-12-05T17:16:54;11.77;;;5.73;;
17496;SDS011;62150;43.582;1.456;2022-12-05T17:19:21;13.53;;;6.70;;
17496;SDS011;62150;43.582;1.456;2022-12-05T17:21:51;13.53;;;7.07;;
17496;SDS011;62150;43.582;1.456;2022-12-05T17:24:18;12.07;;;6.10;;
17496;SDS011;62150;43.582;1.456;2022-12-05T17:26:46;11.17;;;6.07;;
17496;SDS011;62150;43.582;1.456;2022-12-05T17:29:13;12.90;;;7.47;;
17496;SDS011;62150;43.582;1.456;2022-12-05T17:31:42;12.17;;;7.20;;
17496;SDS011;62150;43.582;1.456;2022-12-05T17:34:13;14.83;;;8.13;;
17496;SDS011;62150;43.582;1.456;2022-12-05T17:36:42;13.10;;;7.43;;
17496;SDS011;62150;43.582;1.456;2022-12-05T17:39:10;14.57;;;8.30;;
17496;SDS011;62150;43.582;1.456;2022-12-05T17:41:38;30.73;;;21.83;;
17496;SDS011;62150;43.582;1.456;2022-12-05T17:44:06;24.30;;;16.47;;
17496;SDS011;62150;43.582;1.456;2022-12-05T17:46:36;17.80;;;11.93;;
17496;SDS011;62150;43.582;1.456;2022-12-05T17:49:08;16.33;;;10.30;;
17496;SDS011;62150;43.582;1.456;2022-12-05T17:51:39;14.43;;;8.37;;
17496;SDS011;62150;43.582;1.456;2022-12-05T17:54:07;13.70;;;7.30;;
17496;SDS011;62150;43.582;1.456;2022-12-05T17:56:35;13.23;;;7.10;;
17496;SDS011;62150;43.582;1.456;2022-12-05T17:59:03;11.80;;;6.40;;
17496;SDS011;62150;43.582;1.456;2022-12-05T18:01:30;10.73;;;5.57;;
17496;SDS011;62150;43.582;1.456;2022-12-05T18:03:58;11.70;;;5.90;;
17496;SDS011;62150;43.582;1.456;2022-12-05T18:06:27;12.70;;;5.70;;
17496;SDS011;62150;43.582;1.456;2022-12-05T18:08:55;10.57;;;5.00;;
17496;SDS011;62150;43.582;1.456;2022-12-05T18:11:22;10.20;;;4.87;;
17496;SDS011;62150;43.582;1.456;2022-12-05T18:13:50;11.23;;;5.90;;
17496;SDS011;62150;43.582;1.456;2022-12-05T18:16:19;11.73;;;6.00;;
17496;SDS011;62150;43.582;1.456;2022-12-05T18:18:46;11.00;;;5.83;;
17496;SDS011;62150;43.582;1.456;2022-12-05T18:21:14;13.07;;;7.33;;
17496;SDS011;62150;43.582;1.456;2022-12-05T18:23:43;12.47;;;6.33;;
17496;SDS011;62150;43.582;1.456;2022-12-05T18:26:11;10.90;;;5.60;;
17496;SDS011;62150;43.582;1.456;2022-12-05T18:28:38;9.87;;;4.57;;
17496;SDS011;62150;43.582;1.456;2022-12-05T18:31:07;8.37;;;4.13;;
17496;SDS011;62150;43.582;1.456;2022-12-05T18:33:38;9.23;;;4.67;;
17496;SDS011;62150;43.582;1.456;2022-12-05T18:36:06;8.53;;;4.03;;
17496;SDS011;62150;43.582;1.456;2022-12-05T18:38:35;7.60;;;4.00;;
17496;SDS011;62150;43.582;1.456;2022-12-05T18:41:05;8.13;;;4.17;;
17496;SDS011;62150;43.582;1.456;2022-12-05T18:43:32;8.20;;;3.80;;
17496;SDS011;62150;43.582;1.456;2022-12-05T18:46:01;8.80;;;4.17;;
17496;SDS011;62150;43.582;1.456;2022-12-05T18:48:29;9.77;;;4.77;;
17496;SDS011;62150;43.582;1.456;2022-12-05T18:51:08;10.10;;;4.50;;
17496;SDS011;62150;43.582;1.456;2022-12-05T18:53:37;9.67;;;4.30;;
17496;SDS011;62150;43.582;1.456;2022-12-05T18:56:06;8.40;;;3.70;;
17496;SDS011;62150;43.582;1.456;2022-12-05T18:58:36;9.07;;;3.90;;
17496;SDS011;62150;43.582;1.456;2022-12-05T19:01:04;6.43;;;3.20;;
17496;SDS011;62150;43.582;1.456;2022-12-05T19:03:33;7.67;;;3.30;;
17496;SDS011;62150;43.582;1.456;2022-12-05T19:06:01;6.57;;;3.27;;
17496;SDS011;62150;43.582;1.456;2022-12-05T19:08:37;6.03;;;3.03;;
17496;SDS011;62150;43.582;1.456;2022-12-05T19:11:06;7.10;;;3.10;;
17496;SDS011;62150;43.582;1.456;2022-12-05T19:13:34;7.43;;;3.23;;
17496;SDS011;62150;43.582;1.456;2022-12-05T19:16:02;8.70;;;3.40;;
17496;SDS011;62150;43.582;1.456;2022-12-05T19:18:30;7.03;;;3.20;;
17496;SDS011;62150;43.582;1.456;2022-12-05T19:20:58;6.17;;;2.77;;
17496;SDS011;62150;43.582;1.456;2022-12-05T19:23:26;7.53;;;3.20;;
17496;SDS011;62150;43.582;1.456;2022-12-05T19:25:54;6.80;;;3.20;;
17496;SDS011;62150;43.582;1.456;2022-12-05T19:28:26;8.83;;;3.70;;
17496;SDS011;62150;43.582;1.456;2022-12-05T19:30:57;9.27;;;3.63;;
17496;SDS011;62150;43.582;1.456;2022-12-05T19:33:28;8.13;;;3.50;;
17496;SDS011;62150;43.582;1.456;2022-12-05T19:36:00;9.60;;;3.80;;
17496;SDS011;62150;43.582;1.456;2022-12-05T19:38:30;9.00;;;3.70;;
17496;SDS011;62150;43.582;1.456;2022-12-05T19:40:58;6.97;;;3.10;;
17496;SDS011;62150;43.582;1.456;2022-12-05T19:43:27;8.43;;;3.53;;
17496;SDS011;62150;43.582;1.456;2022-12-05T19:45:55;8.07;;;3.33;;
17496;SDS011;62150;43.582;1.456;2022-12-05T19:48:24;7.30;;;3.20;;
17496;SDS011;62150;43.582;1.456;2022-12-05T19:50:52;5.27;;;2.80;;
17496;SDS011;62150;43.582;1.456;2022-12-05T19:53:20;6.57;;;2.97;;
17496;SDS011;62150;43.582;1.456;2022-12-05T19:55:48;7.53;;;3.30;;
17496;SDS011;62150;43.582;1.456;2022-12-05T19:58:16;7.43;;;2.97;;
17496;SDS011;62150;43.582;1.456;2022-12-05T20:00:45;6.53;;;3.27;;
17496;SDS011;62150;43.582;1.456;2022-12-05T20:03:16;6.53;;;3.17;;
17496;SDS011;62150;43.582;1.456;2022-12-05T20:05:54;8.93;;;3.87;;
17496;SDS011;62150;43.582;1.456;2022-12-05T20:08:22;6.73;;;3.37;;
17496;SDS011;62150;43.582;1.456;2022-12-05T20:10:50;7.80;;;3.53;;
17496;SDS011;62150;43.582;1.456;2022-12-05T20:13:18;9.33;;;3.53;;
17496;SDS011;62150;43.582;1.456;2022-12-05T20:15:47;8.63;;;3.57;;
17496;SDS011;62150;43.582;1.456;2022-12-05T20:18:14;7.47;;;3.47;;
17496;SDS011;62150;43.582;1.456;2022-12-05T20:20:42;8.30;;;3.47;;
17496;SDS011;62150;43.582;1.456;2022-12-05T20:23:09;7.63;;;3.30;;
17496;SDS011;62150;43.582;1.456;2022-12-05T20:25:37;6.70;;;3.10;;
17496;SDS011;62150;43.582;1.456;2022-12-05T20:28:04;6.70;;;3.20;;
17496;SDS011;62150;43.582;1.456;2022-12-05T20:30:32;6.80;;;3.30;;
17496;SDS011;62150;43.582;1.456;2022-12-05T20:33:01;7.27;;;3.30;;
17496;SDS011;62150;43.582;1.456;2022-12-05T20:35:29;6.43;;;3.17;;
17496;SDS011;62150;43.582;1.456;2022-12-05T20:38:00;6.57;;;3.13;;
17496;SDS011;62150;43.582;1.456;2022-12-05T20:40:27;7.13;;;3.20;;
17496;SDS011;62150;43.582;1.456;2022-12-05T20:42:55;6.23;;;2.90;;
17496;SDS011;62150;43.582;1.456;2022-12-05T20:45:22;6.80;;;3.07;;
17496;SDS011;62150;43.582;1.456;2022-12-05T20:47:50;6.47;;;3.00;;
17496;SDS011;62150;43.582;1.456;2022-12-05T20:50:19;7.67;;;3.27;;
17496;SDS011;62150;43.582;1.456;2022-12-05T20:52:47;6.63;;;3.00;;
17496;SDS011;62150;43.582;1.456;2022-12-05T20:55:15;7.90;;;3.40;;
17496;SDS011;62150;43.582;1.456;2022-12-05T20:57:42;8.37;;;3.60;;
17496;SDS011;62150;43.582;1.456;2022-12-05T21:00:10;7.50;;;3.30;;
17496;SDS011;62150;43.582;1.456;2022-12-05T21:02:38;7.60;;;3.20;;
17496;SDS011;62150;43.582;1.456;2022-12-05T21:05:06;8.10;;;3.47;;
17496;SDS011;62150;43.582;1.456;2022-12-05T21:07:41;7.63;;;3.37;;
17496;SDS011;62150;43.582;1.456;2022-12-05T21:10:08;6.27;;;3.17;;
17496;SDS011;62150;43.582;1.456;2022-12-05T21:12:40;8.10;;;3.40;;
17496;SDS011;62150;43.582;1.456;2022-12-05T21:15:08;8.47;;;3.60;;
17496;SDS011;62150;43.582;1.456;2022-12-05T21:17:36;9.40;;;3.30;;
17496;SDS011;62150;43.582;1.456;2022-12-05T21:20:04;6.63;;;3.03;;
17496;SDS011;62150;43.582;1.456;2022-12-05T21:22:33;6.70;;;3.20;;
17496;SDS011;62150;43.582;1.456;2022-12-05T21:25:02;7.20;;;3.20;;
17496;SDS011;62150;43.582;1.456;2022-12-05T21:27:32;7.20;;;3.30;;
17496;SDS011;62150;43.582;1.456;2022-12-05T21:30:00;6.90;;;2.90;;
17496;SDS011;62150;43.582;1.456;2022-12-05T21:32:27;6.50;;;2.80;;
17496;SDS011;62150;43.582;1.456;2022-12-05T21:34:55;8.50;;;2.90;;
17496;SDS011;62150;43.582;1.456;2022-12-05T21:37:25;7.17;;;2.90;;
17496;SDS011;62150;43.582;1.456;2022-12-05T21:39:52;6.07;;;2.90;;
17496;SDS011;62150;43.582;1.456;2022-12-05T21:42:21;5.63;;;2.70;;
17496;SDS011;62150;43.582;1.456;2022-12-05T21:44:49;5.00;;;2.70;;
17496;SDS011;62150;43.582;1.456;2022-12-05T21:47:17;5.13;;;2.60;;
17496;SDS011;62150;43.582;1.456;2022-12-05T21:49:44;6.27;;;2.43;;
17496;SDS011;62150;43.582;1.456;2022-12-05T21:52:12;5.43;;;2.67;;
17496;SDS011;62150;43.582;1.456;2022-12-05T21:54:39;6.27;;;2.70;;
17496;SDS011;62150;43.582;1.456;2022-12-05T21:57:07;5.50;;;2.50;;
17496;SDS011;62150;43.582;1.456;2022-12-05T21:59:36;4.57;;;2.47;;
17496;SDS011;62150;43.582;1.456;2022-12-05T22:02:03;4.60;;;2.47;;
17496;SDS011;62150;43.582;1.456;2022-12-05T22:04:31;5.57;;;2.50;;
17496;SDS011;62150;43.582;1.456;2022-12-05T22:06:58;3.67;;;2.20;;
17496;SDS011;62150;43.582;1.456;2022-12-05T22:09:26;4.50;;;2.33;;
